Time;durP1;ratioP1;P1;durP2;ratioP2;P2;SDS_P1;SDS_P2;PMS_P1;PMS_P2;Temp;Humidity;BMP_temperature;BMP_pressure;BME280_temperature;BME280_humidity;BME280_pressure;Samples;Min_cycle;Max_cycle;Signal;HPM_P1;HPM_P2
2022/04/28 00:01:50;;;;;;;1.52;0.50;;;8.70;64.00;;;;;;5014340;28;20080;-89
2022/04/28 00:04:19;;;;;;;2.83;1.00;;;8.70;64.00;;;;;;4998540;28;20463;-89
2022/04/28 00:06:52;;;;;;;1.75;0.57;;;8.70;64.10;;;;;;4998204;28;20046;-91
2022/04/28 00:09:19;;;;;;;3.53;1.10;;;8.70;64.20;;;;;;4998386;28;20129;-92
2022/04/28 00:11:49;;;;;;;3.10;0.90;;;8.70;64.30;;;;;;4998269;28;20498;-91
2022/04/28 00:14:23;;;;;;;2.65;1.10;;;8.60;64.30;;;;;;4998195;28;20140;-90
2022/04/28 00:16:56;;;;;;;3.17;1.30;;;8.60;64.50;;;;;;5029611;28;20085;-89
2022/04/28 00:19:27;;;;;;;3.63;0.98;;;8.60;64.60;;;;;;5018449;28;20141;-90
2022/04/28 00:21:56;;;;;;;2.30;1.13;;;8.50;64.60;;;;;;4995597;28;20054;-90
2022/04/28 00:24:24;;;;;;;1.92;0.70;;;8.50;64.70;;;;;;5030880;28;20046;-90
2022/04/28 00:26:51;;;;;;;3.00;1.00;;;8.50;64.80;;;;;;4997908;28;20133;-90
2022/04/28 00:29:21;;;;;;;2.75;1.10;;;8.40;64.90;;;;;;5028166;28;20465;-89
2022/04/28 00:31:53;;;;;;;1.48;0.70;;;8.40;65.00;;;;;;4997472;28;20064;-89
2022/04/28 00:34:25;;;;;;;1.80;0.75;;;8.40;65.10;;;;;;4982380;28;20391;-89
2022/04/28 00:36:53;;;;;;;2.33;0.80;;;8.40;65.20;;;;;;5013930;28;20042;-89
2022/04/28 00:39:26;;;;;;;2.20;0.82;;;8.30;65.20;;;;;;5029885;28;20050;-89
2022/04/28 00:41:56;;;;;;;3.42;1.15;;;8.30;65.30;;;;;;5015438;28;20553;-89
2022/04/28 00:44:23;;;;;;;2.35;0.93;;;8.40;65.40;;;;;;4996920;28;20042;-89
2022/04/28 00:46:52;;;;;;;3.97;1.15;;;8.30;65.40;;;;;;4997506;28;20041;-90
2022/04/28 00:52:09;;;;;;;2.40;1.10;;;8.40;65.50;;;;;;5009602;28;20053;-90
2022/04/28 00:54:37;;;;;;;2.05;0.82;;;8.30;65.50;;;;;;5007455;28;20068;-90
2022/04/28 00:57:18;;;;;;;2.85;0.88;;;8.30;65.70;;;;;;5030744;28;20077;-92
2022/04/28 00:59:59;;;;;;;2.35;1.08;;;8.30;65.70;;;;;;5013237;28;20128;-90
2022/04/28 01:02:29;;;;;;;4.15;0.90;;;8.20;65.90;;;;;;4997787;28;20066;-90
2022/04/28 01:04:57;;;;;;;3.67;1.15;;;8.20;65.90;;;;;;4997183;28;20069;-89
2022/04/28 01:07:28;;;;;;;4.90;1.50;;;8.20;66.10;;;;;;5029835;28;20048;-90
2022/04/28 01:09:56;;;;;;;2.72;1.20;;;8.20;66.20;;;;;;5030205;28;20037;-90
2022/04/28 01:12:36;;;;;;;3.65;1.40;;;8.10;66.20;;;;;;4997842;28;20046;-90
2022/04/28 01:15:05;;;;;;;3.60;1.48;;;8.00;66.20;;;;;;4998370;28;20041;-90
2022/04/28 01:17:33;;;;;;;3.13;1.30;;;8.10;66.70;;;;;;5031012;28;20054;-90
2022/04/28 01:20:04;;;;;;;2.70;1.50;;;8.00;66.40;;;;;;4999598;28;20058;-90
2022/04/28 01:22:35;;;;;;;2.38;1.27;;;8.00;66.60;;;;;;4997173;28;20042;-91
2022/04/28 01:25:08;;;;;;;3.28;1.48;;;8.00;66.60;;;;;;4997616;28;20052;-91
2022/04/28 01:27:41;;;;;;;2.92;1.23;;;8.00;66.80;;;;;;5013516;28;20041;-90
2022/04/28 01:30:16;;;;;;;4.07;1.30;;;7.90;66.70;;;;;;5013246;28;20038;-91
2022/04/28 01:32:57;;;;;;;2.97;1.52;;;7.90;66.90;;;;;;5014789;28;20046;-91
2022/04/28 01:35:29;;;;;;;2.92;1.40;;;7.90;66.90;;;;;;5017674;28;20042;-91
2022/04/28 01:38:10;;;;;;;2.47;1.40;;;7.90;67.10;;;;;;5025712;28;20056;-91
2022/04/28 01:40:45;;;;;;;3.13;1.15;;;7.80;67.10;;;;;;4990221;28;20057;-90
2022/04/28 01:43:21;;;;;;;2.47;1.05;;;7.80;67.20;;;;;;5018209;28;20088;-90
2022/04/28 01:45:52;;;;;;;5.00;1.70;;;7.80;67.40;;;;;;5012947;28;20053;-90
2022/04/28 01:48:44;;;;;;;3.00;1.35;;;7.80;67.50;;;;;;4999190;28;20049;-90
2022/04/28 01:57:39;;;;;;;1.92;0.95;;;7.70;67.70;;;;;;5011901;28;20103;-91
2022/04/28 02:00:32;;;;;;;3.92;1.20;;;7.60;67.70;;;;;;5031370;28;20050;-90
2022/04/28 02:03:08;;;;;;;2.42;0.90;;;7.60;67.80;;;;;;4996708;28;20049;-91
2022/04/28 02:05:42;;;;;;;2.70;1.08;;;7.60;67.90;;;;;;5012398;28;20050;-90
2022/04/28 02:08:12;;;;;;;2.90;1.33;;;7.60;68.00;;;;;;4996072;28;20050;-90
2022/04/28 02:10:47;;;;;;;3.30;1.48;;;7.60;68.10;;;;;;5012554;28;20042;-90
2022/04/28 02:13:40;;;;;;;4.80;1.38;;;7.60;68.20;;;;;;4977329;28;20056;-90
2022/04/28 02:16:27;;;;;;;4.55;1.40;;;7.50;68.30;;;;;;4997748;28;20053;-91
2022/04/28 02:19:09;;;;;;;2.53;1.10;;;7.50;68.50;;;;;;4997629;28;20049;-90
2022/04/28 02:21:37;;;;;;;3.30;1.23;;;7.40;68.50;;;;;;5011838;28;20528;-90
2022/04/28 02:24:10;;;;;;;4.03;1.10;;;7.40;68.60;;;;;;4996092;28;20506;-91
2022/04/28 02:26:37;;;;;;;2.55;1.00;;;7.40;68.80;;;;;;5012139;28;20050;-89
2022/04/28 02:29:08;;;;;;;3.15;1.40;;;7.40;68.90;;;;;;4996187;28;20037;-90
2022/04/28 02:31:41;;;;;;;3.15;1.23;;;7.40;68.90;;;;;;5016187;28;20042;-90
2022/04/28 02:34:15;;;;;;;3.15;1.50;;;7.30;69.00;;;;;;4984431;28;20164;-90
2022/04/28 02:36:54;;;;;;;4.45;1.40;;;7.30;69.10;;;;;;4985607;28;20084;-90
2022/04/28 02:39:27;;;;;;;4.00;1.42;;;7.30;69.20;;;;;;5032338;28;20062;-90
2022/04/28 02:41:59;;;;;;;3.08;1.25;;;7.30;69.20;;;;;;4999574;28;20410;-91
2022/04/28 02:44:31;;;;;;;3.28;1.35;;;7.30;69.30;;;;;;4999205;28;20049;-91
2022/04/28 02:47:18;;;;;;;3.17;1.42;;;7.30;69.40;;;;;;5000043;28;20057;-90
2022/04/28 02:49:58;;;;;;;3.33;1.07;;;7.20;69.40;;;;;;5013680;28;20034;-90
2022/04/28 02:52:52;;;;;;;2.70;1.25;;;7.20;69.40;;;;;;5015818;28;20046;-90
2022/04/28 02:55:47;;;;;;;6.25;1.52;;;7.20;69.40;;;;;;5016076;28;20133;-90
2022/04/28 02:58:15;;;;;;;2.60;1.00;;;7.20;69.50;;;;;;4999526;28;20108;-90
2022/04/28 03:01:13;;;;;;;3.03;1.20;;;7.20;69.60;;;;;;4999978;28;20075;-91
2022/04/28 03:03:45;;;;;;;2.72;1.10;;;7.20;69.70;;;;;;4996320;28;20120;-89
2022/04/28 03:12:17;;;;;;;1.50;0.70;;;7.10;69.80;;;;;;5042308;28;20046;-90
2022/04/28 03:15:03;;;;;;;1.80;0.70;;;7.10;69.80;;;;;;5000830;28;20042;-89
2022/04/28 03:17:34;;;;;;;1.52;0.80;;;7.10;69.90;;;;;;4999043;28;20398;-89
2022/04/28 03:20:07;;;;;;;2.50;0.95;;;7.10;70.00;;;;;;4999118;28;20125;-89
2022/04/28 03:22:38;;;;;;;2.83;1.15;;;7.10;70.10;;;;;;4999358;28;20077;-90
2022/04/28 03:25:08;;;;;;;3.28;1.00;;;7.10;70.20;;;;;;4983199;28;20049;-90
2022/04/28 03:27:38;;;;;;;1.65;0.80;;;7.10;70.30;;;;;;5015432;28;20548;-90
2022/04/28 03:30:09;;;;;;;2.72;0.85;;;7.00;70.30;;;;;;4999222;28;20544;-90
2022/04/28 03:32:55;;;;;;;2.22;0.80;;;7.00;70.30;;;;;;5000147;28;20049;-90
2022/04/28 03:35:28;;;;;;;2.35;0.80;;;7.00;70.40;;;;;;5031375;28;20050;-90
2022/04/28 03:40:53;;;;;;;1.88;0.80;;;7.00;70.50;;;;;;4995861;28;20057;-90
2022/04/28 03:43:22;;;;;;;2.85;1.30;;;7.00;70.50;;;;;;4998305;28;20501;-89
2022/04/28 03:45:59;;;;;;;2.80;0.90;;;7.00;70.60;;;;;;5031634;28;20054;-90
2022/04/28 03:48:32;;;;;;;1.67;0.70;;;6.90;70.50;;;;;;4997354;28;20046;-89
2022/04/28 03:51:00;;;;;;;1.73;0.88;;;7.00;70.60;;;;;;5030604;28;20053;-90
2022/04/28 03:53:34;;;;;;;2.33;0.85;;;7.00;70.60;;;;;;5014481;28;20061;-89
2022/04/28 03:56:01;;;;;;;1.83;0.90;;;7.00;70.60;;;;;;5009864;28;20081;-91
2022/04/28 03:58:29;;;;;;;2.55;0.90;;;7.00;70.70;;;;;;4999498;28;20050;-91
2022/04/28 04:01:05;;;;;;;1.17;0.60;;;7.00;70.70;;;;;;4999182;28;20064;-91
2022/04/28 04:03:56;;;;;;;3.53;1.08;;;7.00;70.70;;;;;;5014689;28;20053;-91
2022/04/28 04:06:23;;;;;;;1.73;0.95;;;7.00;70.70;;;;;;5013896;28;20104;-91
2022/04/28 04:09:13;;;;;;;2.47;0.75;;;7.00;70.70;;;;;;5014402;28;20053;-92
2022/04/28 04:11:41;;;;;;;1.65;0.60;;;7.00;70.70;;;;;;5032134;28;20042;-92
2022/04/28 04:14:17;;;;;;;3.13;0.70;;;7.00;70.70;;;;;;5015601;28;20046;-92
2022/04/28 04:16:51;;;;;;;1.58;0.77;;;7.00;70.70;;;;;;5030290;28;20088;-91
2022/04/28 04:19:26;;;;;;;2.20;0.73;;;6.90;70.70;;;;;;4983571;28;20141;-91
2022/04/28 04:22:08;;;;;;;2.83;0.60;;;6.90;70.70;;;;;;5014466;28;20046;-91
2022/04/28 04:24:40;;;;;;;2.80;0.65;;;6.90;70.80;;;;;;4998404;28;20053;-91
2022/04/28 04:27:15;;;;;;;4.07;1.00;;;6.90;70.90;;;;;;5031548;28;20390;-92
2022/04/28 04:33:07;;;;;;;2.67;0.80;;;6.90;71.00;;;;;;4977183;28;20038;-88
2022/04/28 04:35:35;;;;;;;2.45;0.80;;;6.90;71.10;;;;;;4983316;28;20455;-89
2022/04/28 04:38:02;;;;;;;1.92;0.70;;;6.90;71.10;;;;;;5015010;28;20046;-89
2022/04/28 04:40:34;;;;;;;1.50;0.70;;;6.80;71.10;;;;;;4994610;28;20084;-90
2022/04/28 04:43:13;;;;;;;2.33;1.00;;;6.80;71.20;;;;;;4993041;28;20077;-89
2022/04/28 04:45:43;;;;;;;2.13;1.10;;;6.80;71.20;;;;;;5029745;28;20046;-89
2022/04/28 04:48:28;;;;;;;2.47;0.75;;;6.80;71.20;;;;;;5012176;28;20057;-89
2022/04/28 04:50:59;;;;;;;2.20;0.80;;;6.90;71.30;;;;;;5030508;28;20046;-89
2022/04/28 04:53:53;;;;;;;2.30;0.70;;;6.90;71.30;;;;;;5012595;28;20363;-89
2022/04/28 04:56:23;;;;;;;;;;;6.90;71.30;;;;;;5028833;28;20037;-89
2022/04/28 04:58:54;;;;;;;2.50;1.02;;;6.90;71.20;;;;;;5030071;28;20052;-89
2022/04/28 05:01:28;;;;;;;2.20;0.90;;;6.90;71.30;;;;;;5009303;28;20050;-89
2022/04/28 05:04:22;;;;;;;4.30;1.33;;;7.00;71.40;;;;;;5012220;28;20057;-88
2022/04/28 05:07:18;;;;;;;2.42;1.38;;;7.00;71.40;;;;;;5026758;28;20073;-91
2022/04/28 05:09:51;;;;;;;3.13;0.70;;;7.00;71.30;;;;;;5017663;28;20358;-91
2022/04/28 05:12:18;;;;;;;3.20;0.80;;;7.00;71.30;;;;;;5014086;28;20042;-91
2022/04/28 05:15:20;;;;;;;3.92;0.90;;;7.10;71.40;;;;;;4998252;28;20125;-91
2022/04/28 05:18:18;;;;;;;2.45;0.70;;;7.10;71.40;;;;;;5006965;28;20047;-91
2022/04/28 05:20:52;;;;;;;4.72;1.30;;;7.10;71.30;;;;;;4977169;28;20054;-92
2022/04/28 05:23:54;;;;;;;2.75;1.23;;;7.20;71.30;;;;;;4959354;28;20050;-91
2022/04/28 05:26:53;;;;;;;2.40;0.90;;;7.20;71.30;;;;;;4951309;28;20051;-93
2022/04/28 05:29:59;;;;;;;1.40;0.73;;;7.30;71.20;;;;;;4994247;28;20042;-91
2022/04/28 05:32:37;;;;;;;2.05;0.82;;;7.30;71.00;;;;;;4993845;28;20097;-91
2022/04/28 05:35:09;;;;;;;2.67;0.80;;;7.40;71.00;;;;;;5009360;28;20046;-91
2022/04/28 05:37:41;;;;;;;2.55;1.00;;;7.50;70.90;;;;;;4994959;28;20138;-92
2022/04/28 05:40:13;;;;;;;1.85;0.90;;;7.60;70.80;;;;;;4995842;28;20038;-92
2022/04/28 05:45:42;;;;;;;2.85;1.00;;;7.70;70.60;;;;;;4987257;28;20042;-92
2022/04/28 05:48:21;;;;;;;3.28;0.80;;;7.80;70.50;;;;;;5009658;28;20495;-91
2022/04/28 05:51:00;;;;;;;1.48;0.80;;;7.90;70.30;;;;;;4994790;28;20043;-92
2022/04/28 05:53:31;;;;;;;3.00;0.70;;;7.90;70.20;;;;;;5026346;28;20155;-93
2022/04/28 05:56:03;;;;;;;3.35;0.70;;;8.10;70.20;;;;;;5009056;28;20054;-90
2022/04/28 05:58:56;;;;;;;3.83;1.10;;;8.10;70.00;;;;;;5002852;28;20050;-92
2022/04/28 06:02:06;;;;;;;2.65;1.00;;;8.30;69.90;;;;;;4943307;28;20056;-92
2022/04/28 06:04:39;;;;;;;3.85;1.10;;;8.30;69.80;;;;;;4985636;28;20046;-91
2022/04/28 06:07:21;;;;;;;2.67;0.88;;;8.30;69.60;;;;;;4990896;28;20097;-92
2022/04/28 06:10:03;;;;;;;3.85;1.20;;;8.40;69.40;;;;;;4993770;28;20031;-92
2022/04/28 06:12:43;;;;;;;3.95;1.20;;;8.50;69.30;;;;;;4967117;28;20487;-84
2022/04/28 06:15:31;;;;;;;2.10;0.85;;;8.60;69.20;;;;;;4998092;28;20055;-84
2022/04/28 06:18:31;;;;;;;3.70;0.98;;;8.70;69.00;;;;;;5001668;28;20053;-90
2022/04/28 06:21:16;;;;;;;2.00;0.73;;;8.80;68.80;;;;;;5014310;28;20059;-83
2022/04/28 06:23:45;;;;;;;4.97;1.30;;;8.90;68.60;;;;;;5031270;28;20113;-83
2022/04/28 06:26:14;;;;;;;2.70;0.93;;;9.00;68.50;;;;;;4999340;28;20505;-87
2022/04/28 06:28:43;;;;;;;2.63;0.73;;;9.00;68.30;;;;;;4998685;28;20128;-83
2022/04/28 06:31:11;;;;;;;4.13;0.80;;;9.10;68.20;;;;;;4998531;28;20041;-83
2022/04/28 06:34:00;;;;;;;2.30;0.95;;;9.20;68.10;;;;;;5001488;28;20052;-85
2022/04/28 06:36:35;;;;;;;2.47;1.08;;;9.30;67.90;;;;;;4987777;28;20069;-85
2022/04/28 06:39:13;;;;;;;2.78;0.85;;;9.30;67.60;;;;;;4985806;28;20077;-86
2022/04/28 06:42:08;;;;;;;2.03;0.95;;;9.40;67.60;;;;;;5002916;28;20053;-92
2022/04/28 06:45:05;;;;;;;3.65;0.90;;;9.40;67.40;;;;;;5019115;28;20049;-83
2022/04/28 06:47:55;;;;;;;2.22;0.75;;;9.50;67.20;;;;;;5016779;28;20038;-85
2022/04/28 06:50:45;;;;;;;2.20;0.70;;;9.60;67.20;;;;;;5016843;28;20045;-86
2022/04/28 06:53:38;;;;;;;3.80;1.05;;;9.70;67.00;;;;;;4983463;28;20053;-82
2022/04/28 06:56:08;;;;;;;2.42;1.00;;;9.80;66.70;;;;;;4984239;28;20045;-84
2022/04/28 06:58:50;;;;;;;3.60;0.88;;;9.80;66.60;;;;;;5000888;28;20076;-88
2022/04/28 07:01:33;;;;;;;3.13;0.77;;;9.90;66.50;;;;;;4999094;28;20045;-85
2022/04/28 07:04:10;;;;;;;3.05;0.70;;;10.00;66.40;;;;;;4997192;28;20065;-85
2022/04/28 07:06:38;;;;;;;1.67;0.50;;;10.00;66.20;;;;;;4998533;28;20067;-83
2022/04/28 07:09:12;;;;;;;2.72;0.75;;;10.10;66.00;;;;;;4998577;28;20140;-84
2022/04/28 07:11:53;;;;;;;1.45;0.68;;;10.10;65.80;;;;;;5013824;28;20451;-84
2022/04/28 07:14:58;;;;;;;2.75;0.68;;;10.20;65.70;;;;;;5009141;28;20146;-84
2022/04/28 07:17:34;;;;;;;3.10;0.70;;;10.20;65.60;;;;;;4997802;28;20053;-85
2022/04/28 07:20:03;;;;;;;2.38;0.70;;;10.20;65.60;;;;;;4981850;28;20064;-85
2022/04/28 07:22:33;;;;;;;2.30;0.73;;;10.30;65.50;;;;;;4978170;28;20129;-85
2022/04/28 07:25:03;;;;;;;2.30;0.70;;;10.30;65.30;;;;;;4978401;28;20053;-85
2022/04/28 07:27:37;;;;;;;4.50;0.70;;;10.40;65.10;;;;;;4977860;28;20056;-86
2022/04/28 07:31:25;;;;;;;3.67;0.85;;;10.50;64.90;;;;;;4964401;28;20050;-87
2022/04/28 07:34:57;;;;;;;;;;;;;;;;;;;;;
2022/04/28 07:38:58;;;;;;;2.22;0.50;;;10.70;64.60;;;;;;4931026;29;20152;-88
2022/04/28 07:42:33;;;;;;;3.85;0.80;;;10.80;64.40;;;;;;4906863;29;20063;-90
2022/04/28 07:45:00;;;;;;;3.25;0.70;;;11.00;64.10;;;;;;4935032;29;20051;-86
2022/04/28 07:47:29;;;;;;;1.58;0.63;;;11.00;63.90;;;;;;4913234;29;20964;-86
2022/04/28 07:50:10;;;;;;;1.88;0.52;;;11.00;63.80;;;;;;4935576;29;20278;-86
2022/04/28 07:52:39;;;;;;;2.58;0.82;;;11.10;63.70;;;;;;4934351;28;20044;-87
2022/04/28 07:55:22;;;;;;;3.78;0.90;;;11.20;63.50;;;;;;4937687;28;20050;-88
2022/04/28 07:57:59;;;;;;;3.35;0.75;;;11.30;63.30;;;;;;5002058;28;20046;-87
2022/04/28 08:00:40;;;;;;;2.42;1.02;;;11.30;63.30;;;;;;5003400;28;20057;-87
2022/04/28 08:03:08;;;;;;;2.85;0.80;;;11.40;62.80;;;;;;5001027;28;20045;-86
2022/04/28 08:05:45;;;;;;;1.67;0.60;;;11.40;62.90;;;;;;5002474;28;20052;-87
2022/04/28 08:08:13;;;;;;;3.08;0.60;;;11.50;62.80;;;;;;5014185;28;20133;-88
2022/04/28 08:10:41;;;;;;;3.88;1.00;;;11.60;62.80;;;;;;5034389;28;20041;-91
2022/04/28 08:13:21;;;;;;;2.15;0.70;;;11.70;62.70;;;;;;5001490;28;20052;-88
2022/04/28 08:16:11;;;;;;;3.22;0.55;;;11.80;62.50;;;;;;5021308;28;20046;-88
2022/04/28 08:18:42;;;;;;;2.25;0.70;;;11.90;62.40;;;;;;4998003;28;20056;-89
2022/04/28 08:21:19;;;;;;;1.65;0.55;;;11.90;62.20;;;;;;4997257;28;20041;-88
2022/04/28 08:23:46;;;;;;;5.15;0.90;;;12.10;62.30;;;;;;4999988;28;20489;-88
2022/04/28 08:26:19;;;;;;;3.30;0.55;;;12.20;62.00;;;;;;4980924;28;20052;-87
2022/04/28 08:28:50;;;;;;;2.75;0.93;;;12.30;61.90;;;;;;4983784;28;20041;-86
2022/04/28 08:31:59;;;;;;;4.43;1.10;;;12.30;61.70;;;;;;5002421;28;20111;-92
2022/04/28 08:35:12;;;;;;;5.15;1.20;;;12.40;61.20;;;;;;5007451;28;20076;-89
2022/04/28 08:37:43;;;;;;;2.13;0.70;;;12.40;61.80;;;;;;5017248;28;20128;-88
2022/04/28 08:40:42;;;;;;;3.35;0.90;;;12.30;61.40;;;;;;4998272;28;20514;-87
2022/04/28 08:46:55;;;;;;;1.85;0.60;;;12.30;61.40;;;;;;4947101;29;20052;-89
2022/04/28 08:50:33;;;;;;;4.05;1.35;;;12.50;61.20;;;;;;4879161;29;20053;-89
2022/04/28 08:53:20;;;;;;;2.78;0.52;;;12.60;60.80;;;;;;4865780;29;20157;-89
2022/04/28 08:56:01;;;;;;;3.22;0.60;;;12.70;60.80;;;;;;4890471;29;20053;-85
2022/04/28 08:58:38;;;;;;;1.45;0.75;;;12.80;60.60;;;;;;4894130;29;20105;-93
2022/04/28 09:01:24;;;;;;;;;;;;;;;;;;;;;
2022/04/28 09:04:33;;;;;;;2.30;1.02;;;12.80;60.20;;;;;;4902716;29;20050;-92
2022/04/28 09:07:45;;;;;;;4.63;1.50;;;12.90;60.10;;;;;;4977693;28;20103;-91
2022/04/28 09:11:28;;;;;;;3.47;1.30;;;13.00;59.20;;;;;;5012381;28;20176;-91
2022/04/28 09:14:55;;;;;;;2.33;1.33;;;13.00;59.90;;;;;;4999798;28;20124;-90
2022/04/28 09:18:12;;;;;;;;;;;;;;;;;;;;;
2022/04/28 09:21:02;;;;;;;2.42;0.80;;;13.10;59.30;;;;;;5023347;28;20048;-90
2022/04/28 09:27:12;;;;;;;2.42;1.15;;;13.20;58.80;;;;;;5014237;28;20057;-90
2022/04/28 09:30:27;;;;;;;;;;;;;;;;;;;;;
2022/04/28 09:33:58;;;;;;;;;;;;;;;;;;;;;
2022/04/28 09:37:37;;;;;;;3.25;0.80;;;13.40;58.80;;;;;;4919913;29;20592;-92
2022/04/28 09:43:38;;;;;;;2.70;1.33;;;13.50;57.90;;;;;;4908698;29;20059;-84
2022/04/28 09:46:08;;;;;;;4.70;1.40;;;13.50;58.00;;;;;;4918986;29;20048;-89
2022/04/28 09:49:08;;;;;;;1.50;0.68;;;13.60;57.90;;;;;;4959796;28;20058;-89
2022/04/28 09:52:34;;;;;;;2.92;0.85;;;13.70;57.80;;;;;;4869268;29;20041;-90
2022/04/28 09:56:27;;;;;;;;;;;;;;;;;;;;;
2022/04/28 09:59:50;;;;;;;2.45;1.17;;;13.90;57.40;;;;;;4892484;29;20058;-90
2022/04/28 10:03:17;;;;;;;3.75;0.82;;;14.00;57.40;;;;;;4915637;29;20100;-90
2022/04/28 10:06:09;;;;;;;4.32;0.82;;;14.10;57.30;;;;;;4915083;29;20059;-92
2022/04/28 10:08:56;;;;;;;4.75;1.10;;;14.20;57.10;;;;;;4977973;28;20537;-91
2022/04/28 10:12:00;;;;;;;;;;;;;;;;;;;;;
2022/04/28 10:15:06;;;;;;;3.03;1.00;;;14.30;56.50;;;;;;4976931;28;20042;-92
2022/04/28 10:18:24;;;;;;;4.75;0.90;;;14.40;56.60;;;;;;4936616;28;20100;-92
2022/04/28 10:21:00;;;;;;;2.55;1.13;;;14.60;56.20;;;;;;5021407;28;20589;-89
2022/04/28 10:33:15;;;;;;;3.85;0.90;;;14.70;55.70;;;;;;5016386;28;20612;-88
2022/04/28 10:36:15;;;;;;;;;;;;;;;;;;;;;
2022/04/28 10:43:34;;;;;;;2.85;0.73;;;15.70;54.30;;;;;;5013644;28;20064;-88
2022/04/28 10:46:13;;;;;;;5.18;1.23;;;16.40;53.10;;;;;;5015348;28;20045;-91
2022/04/28 10:48:43;;;;;;;2.83;1.15;;;16.50;52.70;;;;;;4995860;28;20060;-88
2022/04/28 10:51:22;;;;;;;3.55;1.55;;;16.10;53.00;;;;;;5014220;28;20509;-92
2022/04/28 10:54:19;;;;;;;4.07;1.02;;;15.80;53.60;;;;;;5003401;28;20149;-91
2022/04/28 10:56:51;;;;;;;3.92;0.82;;;15.60;54.10;;;;;;4999010;28;20581;-90
2022/04/28 10:59:32;;;;;;;5.53;1.27;;;15.60;54.30;;;;;;5013622;28;20163;-93
2022/04/28 11:02:24;;;;;;;4.75;1.27;;;15.50;54.20;;;;;;5030273;28;20049;-92
2022/04/28 11:05:10;;;;;;;4.80;1.25;;;15.40;54.30;;;;;;5002317;28;20041;-91
2022/04/28 11:07:46;;;;;;;4.10;1.33;;;15.40;54.30;;;;;;5013582;28;20053;-93
2022/04/28 11:10:56;;;;;;;2.97;1.48;;;15.90;53.90;;;;;;4998556;28;20498;-91
2022/04/28 11:13:45;;;;;;;6.13;0.80;;;16.60;52.70;;;;;;5030299;28;20034;-91
2022/04/28 11:16:22;;;;;;;4.22;1.20;;;17.00;51.60;;;;;;5034189;28;20186;-92
2022/04/28 11:18:49;;;;;;;4.53;1.67;;;16.70;51.50;;;;;;4999027;28;20141;-91
2022/04/28 11:21:22;;;;;;;3.75;1.48;;;16.70;51.40;;;;;;5000546;28;20053;-90
2022/04/28 11:23:51;;;;;;;3.80;1.17;;;17.20;51.10;;;;;;4999729;28;20069;-85
2022/04/28 11:26:39;;;;;;;2.55;1.10;;;17.70;50.30;;;;;;5011691;28;20141;-84
2022/04/28 11:29:25;;;;;;;2.10;1.05;;;18.00;49.60;;;;;;4998796;28;20497;-84
2022/04/28 11:31:53;;;;;;;3.17;1.15;;;18.40;49.10;;;;;;4995357;28;20050;-84
2022/04/28 11:34:21;;;;;;;3.97;1.48;;;18.70;48.60;;;;;;4998030;28;20046;-83
2022/04/28 11:36:51;;;;;;;3.97;1.50;;;18.90;48.20;;;;;;5030817;28;20044;-85
2022/04/28 11:40:04;;;;;;;2.17;0.98;;;19.00;48.00;;;;;;4994288;28;20053;-87
2022/04/28 11:43:07;;;;;;;2.53;1.20;;;19.00;47.80;;;;;;4997581;28;20030;-84
2022/04/28 11:45:36;;;;;;;4.18;1.20;;;19.10;47.90;;;;;;5023332;28;20056;-91
2022/04/28 11:48:17;;;;;;;3.70;1.35;;;19.30;48.20;;;;;;4950164;28;20098;-87
2022/04/28 11:50:47;;;;;;;2.47;1.20;;;19.50;47.30;;;;;;4934714;28;20046;-84
2022/04/28 11:53:16;;;;;;;2.95;1.25;;;19.60;47.30;;;;;;4952141;28;20094;-84
2022/04/28 11:55:43;;;;;;;4.28;1.67;;;19.70;47.20;;;;;;4936816;29;20051;-94
2022/04/28 11:58:16;;;;;;;2.65;1.40;;;19.80;47.20;;;;;;4955753;28;20035;-90
2022/04/28 12:00:47;;;;;;;4.20;1.30;;;19.90;47.20;;;;;;4956055;28;20062;-95
2022/04/28 12:03:33;;;;;;;3.67;1.38;;;19.90;47.00;;;;;;4943504;28;20055;-91
2022/04/28 12:06:10;;;;;;;3.30;0.90;;;20.10;47.10;;;;;;4955963;28;20519;-88
2022/04/28 12:08:39;;;;;;;3.88;1.25;;;20.30;46.80;;;;;;4956208;28;20070;-85
2022/04/28 12:19:26;;;;;;;3.35;1.30;;;20.50;46.50;;;;;;4991412;28;20050;-85
2022/04/28 12:22:14;;;;;;;2.85;1.08;;;20.60;46.60;;;;;;5012230;28;20042;-90
2022/04/28 12:25:11;;;;;;;2.67;1.20;;;20.90;46.30;;;;;;4986120;28;20333;-90
2022/04/28 12:27:54;;;;;;;3.40;1.00;;;21.30;46.10;;;;;;5013124;28;20041;-88
2022/04/28 12:30:39;;;;;;;;;;;;;;;;;;;;;
2022/04/28 12:34:12;;;;;;;3.53;1.17;;;21.50;45.20;;;;;;5009913;28;20045;-80
2022/04/28 12:37:00;;;;;;;3.53;1.42;;;21.60;45.30;;;;;;5031265;28;20520;-83
2022/04/28 12:39:57;;;;;;;2.20;1.00;;;21.70;44.70;;;;;;4992614;28;20141;-81
2022/04/28 12:42:43;;;;;;;3.05;1.10;;;21.70;44.60;;;;;;5031401;28;20049;-86
2022/04/28 12:45:11;;;;;;;2.47;0.90;;;21.70;44.70;;;;;;4997798;28;20045;-84
2022/04/28 12:47:41;;;;;;;4.03;1.70;;;21.90;44.70;;;;;;4987076;28;20227;-90
2022/04/28 12:50:23;;;;;;;2.50;1.42;;;21.70;44.40;;;;;;5041308;28;20030;-90
2022/04/28 12:52:52;;;;;;;4.50;1.20;;;21.30;44.40;;;;;;5014141;28;20049;-83
2022/04/28 12:55:20;;;;;;;2.75;1.20;;;20.80;44.90;;;;;;5036000;28;20128;-83
2022/04/28 12:57:53;;;;;;;3.47;1.17;;;20.60;45.60;;;;;;4994524;28;20045;-83
2022/04/28 13:00:22;;;;;;;3.50;1.48;;;20.40;46.00;;;;;;5004754;28;20050;-83
2022/04/28 13:02:52;;;;;;;3.47;1.33;;;20.10;46.00;;;;;;5007114;28;20060;-82
2022/04/28 13:05:45;;;;;;;3.20;1.27;;;19.80;46.30;;;;;;5016378;28;20100;-94
2022/04/28 13:13:12;;;;;;;3.47;1.40;;;18.90;46.90;;;;;;4997618;28;20160;-89
2022/04/28 13:19:46;;;;;;;3.42;1.85;;;18.50;48.40;;;;;;5023154;28;20056;-91
2022/04/28 13:22:18;;;;;;;2.90;1.10;;;18.30;48.60;;;;;;4992185;28;20049;-81
2022/04/28 13:24:45;;;;;;;2.72;1.45;;;18.10;48.60;;;;;;4994381;28;20101;-83
2022/04/28 13:27:25;;;;;;;3.95;1.50;;;18.00;48.70;;;;;;5015679;28;20053;-90
2022/04/28 13:30:05;;;;;;;3.60;1.42;;;17.90;48.50;;;;;;5021040;28;20072;-90
2022/04/28 13:32:38;;;;;;;4.15;1.23;;;17.90;48.80;;;;;;5008787;28;20104;-96
2022/04/28 13:35:18;;;;;;;3.00;1.55;;;17.90;48.70;;;;;;5004767;28;20050;-87
2022/04/28 13:38:01;;;;;;;3.00;1.42;;;17.80;48.50;;;;;;4990052;28;20076;-87
2022/04/28 13:40:34;;;;;;;3.40;1.42;;;17.80;48.70;;;;;;4996765;28;20088;-86
2022/04/28 13:43:13;;;;;;;3.35;1.65;;;17.80;48.70;;;;;;4981973;28;20455;-87
2022/04/28 13:45:40;;;;;;;4.75;1.42;;;17.80;48.70;;;;;;4996135;28;20049;-82
2022/04/28 13:48:26;;;;;;;6.28;1.80;;;17.90;48.50;;;;;;4995879;28;20049;-84
2022/04/28 13:50:56;;;;;;;4.25;1.90;;;17.90;48.40;;;;;;5013471;28;20033;-87
2022/04/28 13:53:54;;;;;;;3.05;1.30;;;17.90;48.60;;;;;;4998128;28;20045;-96
2022/04/28 13:56:22;;;;;;;2.13;1.10;;;18.00;48.40;;;;;;4994061;28;20565;-84
2022/04/28 13:58:52;;;;;;;4.00;1.55;;;18.00;48.50;;;;;;5012956;28;20057;-89
2022/04/28 14:01:39;;;;;;;;;;;;;;;;;;;;;
2022/04/28 14:04:09;;;;;;;4.30;1.30;;;18.00;48.40;;;;;;5028133;28;20044;-88
2022/04/28 14:11:03;;;;;;;3.85;2.42;;;18.10;48.30;;;;;;5011357;28;20033;-88
2022/04/28 14:13:31;;;;;;;3.95;2.00;;;17.90;48.50;;;;;;5020709;28;20047;-87
2022/04/28 14:16:04;;;;;;;3.17;1.40;;;18.00;48.60;;;;;;5007776;28;20042;-91
2022/04/28 14:19:14;;;;;;;4.10;1.83;;;18.10;48.60;;;;;;5001214;28;20446;-84
2022/04/28 14:22:04;;;;;;;2.92;1.45;;;18.40;48.30;;;;;;4984782;28;20068;-91
2022/04/28 14:24:58;;;;;;;4.32;1.30;;;18.50;48.50;;;;;;4969231;28;20054;-90
2022/04/28 14:27:59;;;;;;;5.47;1.50;;;18.70;48.20;;;;;;4969002;28;20049;-84
2022/04/28 14:30:35;;;;;;;2.67;1.17;;;18.80;48.20;;;;;;4991292;28;20146;-86
2022/04/28 14:33:03;;;;;;;4.00;1.40;;;19.50;47.40;;;;;;4994346;28;20066;-87
2022/04/28 14:35:34;;;;;;;2.65;1.02;;;21.30;45.20;;;;;;4992225;28;20074;-86
2022/04/28 14:38:07;;;;;;;2.53;0.95;;;22.80;43.20;;;;;;4989281;28;20043;-89
2022/04/28 14:40:34;;;;;;;3.60;1.10;;;24.00;41.70;;;;;;4976576;28;20106;-84
2022/04/28 14:43:02;;;;;;;1.95;0.80;;;24.70;40.70;;;;;;4993099;28;20237;-89
2022/04/28 14:45:32;;;;;;;3.15;0.80;;;25.30;40.30;;;;;;4991552;28;20055;-87
2022/04/28 14:48:01;;;;;;;2.67;0.88;;;25.80;39.60;;;;;;4991433;28;20150;-88
2022/04/28 14:53:51;;;;;;;3.47;1.00;;;26.50;38.60;;;;;;5003713;28;20038;-89
2022/04/28 14:56:19;;;;;;;2.85;1.10;;;26.90;38.30;;;;;;5008229;28;20520;-83
2022/04/28 14:58:46;;;;;;;2.28;1.13;;;27.30;37.70;;;;;;5008186;28;20065;-85
2022/04/28 15:01:20;;;;;;;3.38;1.30;;;27.50;37.60;;;;;;5011172;28;20060;-89
2022/04/28 15:03:50;;;;;;;3.05;0.77;;;27.60;36.70;;;;;;4997173;28;20386;-83
2022/04/28 15:06:17;;;;;;;3.83;1.30;;;27.60;37.00;;;;;;5013653;28;20076;-89
2022/04/28 15:08:45;;;;;;;2.10;0.80;;;27.80;36.40;;;;;;4998965;28;20122;-86
2022/04/28 15:11:12;;;;;;;1.90;0.82;;;27.90;36.30;;;;;;4996691;28;20464;-85
2022/04/28 15:13:39;;;;;;;1.33;0.70;;;27.90;35.90;;;;;;5010990;28;20050;-86
2022/04/28 15:16:06;;;;;;;3.15;0.55;;;28.10;35.80;;;;;;4995186;28;20041;-89
2022/04/28 15:18:34;;;;;;;2.50;0.90;;;28.50;35.70;;;;;;4997368;28;20044;-86
2022/04/28 15:21:02;;;;;;;1.70;0.50;;;28.60;35.20;;;;;;4994691;28;20053;-87
2022/04/28 15:23:29;;;;;;;1.05;0.52;;;28.60;35.10;;;;;;4997427;28;20064;-86
2022/04/28 15:25:56;;;;;;;2.80;0.88;;;28.80;35.00;;;;;;4982240;28;20503;-88
2022/04/28 15:28:24;;;;;;;3.30;1.08;;;29.00;34.90;;;;;;4997693;28;20438;-86